createdAt,value
2018-08-16T00:02:30.300Z,1019.4
2018-08-16T00:07:31.755Z,1019.4
2018-08-16T00:12:31.601Z,1019.5
2018-08-16T00:17:31.679Z,1019.4
2018-08-16T00:22:31.496Z,1019.6
2018-08-16T00:27:31.499Z,1019.5
2018-08-16T00:32:31.505Z,1019.5
2018-08-16T00:37:31.707Z,1019.5
2018-08-16T00:42:31.560Z,1019.5
2018-08-16T00:47:31.662Z,1019.4
2018-08-16T00:52:48.601Z,1019.3
2018-08-16T00:57:48.319Z,1019.3
2018-08-16T01:02:48.321Z,1019.3
2018-08-16T01:07:48.505Z,1019.3
2018-08-16T01:12:48.552Z,1019.4
2018-08-16T01:17:48.471Z,1019.4
2018-08-16T01:22:48.351Z,1019.3
2018-08-16T01:27:48.357Z,1019.4
2018-08-16T01:32:48.468Z,1019.4
2018-08-16T01:38:00.689Z,1019.4
2018-08-16T01:43:00.521Z,1019.4
2018-08-16T01:48:00.400Z,1019.4
2018-08-16T01:53:00.370Z,1019.4
2018-08-16T01:58:00.512Z,1019.4
2018-08-16T02:03:00.390Z,1019.5
2018-08-16T02:08:00.689Z,1019.5
2018-08-16T02:13:00.725Z,1019.5
2018-08-16T02:18:00.768Z,1019.6
2018-08-16T02:23:00.684Z,1019.5
2018-08-16T02:28:00.715Z,1019.4
2018-08-16T02:33:00.593Z,1019.4
2018-08-16T02:38:00.589Z,1019.4
2018-08-16T02:43:01.355Z,1019.4
2018-08-16T02:48:12.059Z,1019.5
2018-08-16T02:53:11.793Z,1019.5
2018-08-16T02:58:11.998Z,1019.6
2018-08-16T03:03:11.812Z,1019.5
2018-08-16T03:08:11.966Z,1019.6
2018-08-16T03:13:12.004Z,1019.5
2018-08-16T03:18:11.917Z,1019.5
2018-08-16T03:23:14.508Z,1019.4
2018-08-16T03:28:14.232Z,1019.4
2018-08-16T03:33:29.697Z,1019.5
2018-08-16T03:38:29.578Z,1019.5
2018-08-16T03:43:29.422Z,1019.6
2018-08-16T03:48:29.409Z,1019.6
2018-08-16T03:53:29.434Z,1019.6
2018-08-16T03:58:30.653Z,1019.7
2018-08-16T04:03:29.663Z,1019.7
2018-08-16T04:08:29.558Z,1019.7
2018-08-16T04:13:29.399Z,1019.7
2018-08-16T04:18:29.449Z,1019.7
2018-08-16T04:23:29.533Z,1019.7
2018-08-16T04:28:29.436Z,1019.7
2018-08-16T04:33:29.448Z,1019.7
2018-08-16T04:38:29.452Z,1019.6
2018-08-16T04:43:40.558Z,1019.6
2018-08-16T04:48:41.000Z,1019.6
2018-08-16T04:53:40.520Z,1019.5
2018-08-16T04:58:40.487Z,1019.5
2018-08-16T05:03:40.717Z,1019.5
2018-08-16T05:08:40.645Z,1019.4
2018-08-16T05:13:40.522Z,1019.3
2018-08-16T05:18:40.525Z,1019.3
2018-08-16T05:23:40.664Z,1019.3
2018-08-16T05:28:51.975Z,1019.2
2018-08-16T05:33:51.753Z,1019.2
2018-08-16T05:38:51.790Z,1019.3
2018-08-16T05:43:51.712Z,1019.2
2018-08-16T05:48:51.951Z,1019
2018-08-16T05:53:51.718Z,1019.1
2018-08-16T05:58:51.703Z,1019
2018-08-16T06:03:51.867Z,1019.1
2018-08-16T06:08:51.860Z,1019.1
2018-08-16T06:13:51.821Z,1018.9
2018-08-16T06:18:51.749Z,1018.9
2018-08-16T06:23:51.887Z,1018.9
2018-08-16T06:28:55.739Z,1018.7
2018-08-16T06:33:55.455Z,1018.6
2018-08-16T06:39:06.086Z,1018.7
2018-08-16T06:44:05.963Z,1018.5
2018-08-16T06:49:06.012Z,1018.4
2018-08-16T06:54:06.027Z,1018.4
2018-08-16T06:59:05.950Z,1018.2
2018-08-16T07:04:06.907Z,1018.2
2018-08-16T07:09:06.931Z,1018.2
2018-08-16T07:14:08.829Z,1018.2
2018-08-16T07:19:08.544Z,1018.2
2018-08-16T07:24:21.043Z,1018.1
2018-08-16T07:29:20.447Z,1018.1
2018-08-16T07:34:20.635Z,1018.2
2018-08-16T07:39:20.674Z,1018.1
2018-08-16T07:44:20.450Z,1018.1
2018-08-16T07:49:20.449Z,1018
2018-08-16T07:54:20.608Z,1018
2018-08-16T07:59:26.052Z,1017.9
2018-08-16T08:04:25.889Z,1017.9
2018-08-16T08:09:39.065Z,1017.8
2018-08-16T08:14:38.119Z,1017.8
2018-08-16T08:19:37.963Z,1017.8
2018-08-16T08:24:38.192Z,1017.9
2018-08-16T08:29:38.105Z,1017.8
2018-08-16T08:34:37.990Z,1017.8
2018-08-16T08:39:37.972Z,1017.7
2018-08-16T08:44:37.995Z,1017.7
2018-08-16T08:49:38.143Z,1017.6
2018-08-16T08:54:50.322Z,1017.6
2018-08-16T08:59:50.079Z,1017.6
2018-08-16T09:04:50.274Z,1017.5
2018-08-16T09:09:50.256Z,1017.4
2018-08-16T09:14:50.398Z,1017.3
2018-08-16T09:19:50.066Z,1017.2
2018-08-16T09:24:50.268Z,1017.2
2018-08-16T09:29:51.552Z,1017.1
2018-08-16T09:34:51.250Z,1016.9
2018-08-16T09:40:04.619Z,1016.9
2018-08-16T09:45:04.533Z,1016.9
2018-08-16T09:50:05.590Z,1016.8
2018-08-16T09:55:04.660Z,1016.7
2018-08-16T10:00:04.364Z,1016.7
2018-08-16T10:05:04.574Z,1016.6
2018-08-16T10:10:04.606Z,1016.5
2018-08-16T10:15:07.923Z,1016.3
2018-08-16T10:20:05.006Z,1016.3
2018-08-16T10:25:17.625Z,1016.3
2018-08-16T10:30:17.112Z,1016.2
2018-08-16T10:35:17.260Z,1016.2
2018-08-16T10:40:17.136Z,1016.1
2018-08-16T10:45:17.347Z,1016
2018-08-16T10:50:17.134Z,1015.8
2018-08-16T10:55:17.314Z,1015.8
2018-08-16T11:00:17.367Z,1015.7
2018-08-16T11:05:17.273Z,1015.7
2018-08-16T11:10:17.294Z,1015.8
2018-08-16T11:15:17.345Z,1015.7
2018-08-16T11:20:17.138Z,1015.6
2018-08-16T11:25:17.151Z,1015.6
2018-08-16T11:30:17.327Z,1015.5
2018-08-16T11:35:29.532Z,1015.3
2018-08-16T11:40:29.115Z,1015.4
2018-08-16T11:45:29.323Z,1015.3
2018-08-16T11:50:29.139Z,1015.2
2018-08-16T11:55:29.270Z,1015.4
2018-08-16T12:00:29.120Z,1015.2
2018-08-16T12:05:30.369Z,1015.2
2018-08-16T12:10:29.261Z,1015.1
2018-08-16T12:15:29.158Z,1014.9
2018-08-16T12:20:43.018Z,1015
2018-08-16T12:25:42.684Z,1014.9
2018-08-16T12:30:42.760Z,1014.7
2018-08-16T12:35:42.864Z,1014.6
2018-08-16T12:40:43.186Z,1014.6
2018-08-16T12:45:42.740Z,1014.7
2018-08-16T12:50:42.730Z,1014.6
2018-08-16T12:55:42.892Z,1014.6
2018-08-16T13:00:42.917Z,1014.4
2018-08-16T13:05:42.755Z,1014.4
2018-08-16T13:10:43.010Z,1014.3
2018-08-16T13:15:42.715Z,1014.3
2018-08-16T13:20:42.758Z,1014.3
2018-08-16T13:25:42.773Z,1014.2
2018-08-16T13:30:54.591Z,1014.1
2018-08-16T13:35:54.348Z,1014.2
2018-08-16T13:40:54.460Z,1014.1
2018-08-16T13:45:54.319Z,1014
2018-08-16T13:50:54.589Z,1014
2018-08-16T13:55:54.468Z,1013.9
2018-08-16T14:00:54.364Z,1013.9
2018-08-16T14:05:56.196Z,1014
2018-08-16T14:10:55.922Z,1013.8
2018-08-16T14:16:09.037Z,1013.9
2018-08-16T14:21:08.893Z,1013.8
2018-08-16T14:26:09.036Z,1013.8
2018-08-16T14:31:08.840Z,1013.7
2018-08-16T14:36:08.694Z,1013.7
2018-08-16T14:41:08.682Z,1013.8
2018-08-16T14:46:08.835Z,1013.6
2018-08-16T14:51:08.893Z,1013.6
2018-08-16T14:56:08.709Z,1013.5
2018-08-16T15:01:08.711Z,1013.5
2018-08-16T15:06:08.712Z,1013.6
2018-08-16T15:11:08.696Z,1013.6
2018-08-16T15:16:08.712Z,1013.5
2018-08-16T15:21:08.700Z,1013.5
2018-08-16T15:26:19.517Z,1013.5
2018-08-16T15:31:19.213Z,1013.5
2018-08-16T15:36:19.544Z,1013.4
2018-08-16T15:41:19.232Z,1013.4
2018-08-16T15:46:19.255Z,1013.3
2018-08-16T15:51:19.298Z,1013.4
2018-08-16T15:56:19.247Z,1013.3
2018-08-16T16:01:22.585Z,1013.3
2018-08-16T16:06:22.801Z,1013.2
2018-08-16T16:11:33.958Z,1013.2
2018-08-16T16:16:34.210Z,1013.1
2018-08-16T16:21:33.729Z,1013.1
2018-08-16T16:26:33.691Z,1013
2018-08-16T16:31:33.941Z,1013
2018-08-16T16:36:33.930Z,1013.1
2018-08-16T16:41:35.179Z,1013
2018-08-16T16:46:35.600Z,1013
2018-08-16T16:51:35.307Z,1013.1
2018-08-16T16:56:45.318Z,1013.1
2018-08-16T17:01:45.072Z,1013.1
2018-08-16T17:06:45.251Z,1013.1
2018-08-16T17:11:46.129Z,1013.1
2018-08-16T17:16:45.084Z,1013.1
2018-08-16T17:21:45.075Z,1013.2
2018-08-16T17:26:45.307Z,1013.2
2018-08-16T17:31:45.021Z,1013.2
2018-08-16T17:36:45.320Z,1013.2
2018-08-16T17:41:56.768Z,1013.2
2018-08-16T17:46:56.517Z,1013.2
2018-08-16T17:51:56.493Z,1013.3
2018-08-16T17:56:56.628Z,1013.2
2018-08-16T18:01:56.508Z,1013.2
2018-08-16T18:06:56.515Z,1013.5
2018-08-16T18:11:56.529Z,1013.5
2018-08-16T18:16:56.489Z,1013.5
2018-08-16T18:21:56.748Z,1013.5
2018-08-16T18:27:08.407Z,1013.6
2018-08-16T18:32:08.373Z,1013.7
2018-08-16T18:37:08.277Z,1013.8
2018-08-16T18:42:08.376Z,1013.8
2018-08-16T18:47:08.174Z,1013.8
2018-08-16T18:52:08.135Z,1014
2018-08-16T18:57:08.091Z,1014
2018-08-16T19:02:09.478Z,1014
2018-08-16T19:07:09.190Z,1014
2018-08-16T19:12:20.961Z,1014
2018-08-16T19:17:20.579Z,1014
2018-08-16T19:22:20.582Z,1014
2018-08-16T19:27:20.682Z,1014.1
2018-08-16T19:32:21.883Z,1014.1
2018-08-16T19:37:20.628Z,1014.1
2018-08-16T19:42:20.651Z,1014.2
2018-08-16T19:47:20.657Z,1014.2
2018-08-16T19:52:20.625Z,1014.2
2018-08-16T19:57:20.797Z,1014.2
2018-08-16T20:02:20.662Z,1014.1
2018-08-16T20:07:20.583Z,1014.1
2018-08-16T20:12:23.562Z,1014.1
2018-08-16T20:17:23.524Z,1014.2
2018-08-16T20:22:35.579Z,1014.2
2018-08-16T20:27:35.154Z,1014.3
2018-08-16T20:32:35.275Z,1014.3
2018-08-16T20:37:35.134Z,1014.3
2018-08-16T20:42:35.314Z,1014.2
2018-08-16T20:47:35.321Z,1014.2
2018-08-16T20:52:35.822Z,1014.2
2018-08-16T20:57:36.097Z,1014.3
2018-08-16T21:02:35.844Z,1014.4
2018-08-16T21:07:47.832Z,1014.3
2018-08-16T21:12:47.583Z,1014.4
2018-08-16T21:17:47.521Z,1014.4
2018-08-16T21:22:47.557Z,1014.4
2018-08-16T21:27:47.807Z,1014.5
2018-08-16T21:32:47.553Z,1014.5
2018-08-16T21:37:47.690Z,1014.6
2018-08-16T21:42:47.751Z,1014.7
2018-08-16T21:47:47.572Z,1014.6
2018-08-16T21:52:47.695Z,1014.6
2018-08-16T21:57:47.731Z,1014.7
2018-08-16T22:02:47.827Z,1014.8
2018-08-16T22:07:48.275Z,1014.8
2018-08-16T22:12:48.269Z,1014.7
2018-08-16T22:18:01.014Z,1014.7
2018-08-16T22:23:00.403Z,1014.7
2018-08-16T22:28:00.341Z,1014.7
2018-08-16T22:33:00.449Z,1014.8
2018-08-16T22:38:00.400Z,1014.8
2018-08-16T22:43:00.362Z,1014.8
2018-08-16T22:48:00.472Z,1014.8
2018-08-16T22:53:00.463Z,1014.7
2018-08-16T22:58:00.445Z,1014.7
2018-08-16T23:03:14.945Z,1014.8
2018-08-16T23:08:14.875Z,1014.8
2018-08-16T23:13:14.874Z,1014.7
2018-08-16T23:18:14.812Z,1014.6
2018-08-16T23:23:14.675Z,1014.7
2018-08-16T23:28:15.761Z,1014.7
2018-08-16T23:33:15.476Z,1014.7
2018-08-16T23:38:15.493Z,1014.8
2018-08-16T23:43:15.893Z,1014.7
2018-08-16T23:48:15.511Z,1014.8
2018-08-16T23:53:15.667Z,1014.7
2018-08-16T23:58:15.702Z,1014.7
